sensor_id;sensor_type;location;lat;lon;timestamp;P1;durP1;ratioP1;P2;durP2;ratioP2
27365;SDS011;14837;57.148;-2.144;2024-03-02T00:01:56;1.58;;;1.00;;
27365;SDS011;14837;57.148;-2.144;2024-03-02T00:04:23;2.47;;;1.27;;
27365;SDS011;14837;57.148;-2.144;2024-03-02T00:06:52;2.35;;;1.05;;
27365;SDS011;14837;57.148;-2.144;2024-03-02T00:09:22;1.77;;;1.00;;
27365;SDS011;14837;57.148;-2.144;2024-03-02T00:11:49;2.85;;;0.98;;
27365;SDS011;14837;57.148;-2.144;2024-03-02T00:14:17;2.38;;;1.33;;
27365;SDS011;14837;57.148;-2.144;2024-03-02T00:16:43;2.33;;;1.10;;
27365;SDS011;14837;57.148;-2.144;2024-03-02T00:19:10;1.42;;;1.08;;
27365;SDS011;14837;57.148;-2.144;2024-03-02T00:21:37;3.10;;;1.00;;
27365;SDS011;14837;57.148;-2.144;2024-03-02T00:24:20;6.57;;;1.10;;
27365;SDS011;14837;57.148;-2.144;2024-03-02T00:26:48;1.15;;;0.73;;
27365;SDS011;14837;57.148;-2.144;2024-03-02T00:29:15;1.65;;;0.70;;
27365;SDS011;14837;57.148;-2.144;2024-03-02T00:31:43;2.38;;;1.00;;
27365;SDS011;14837;57.148;-2.144;2024-03-02T00:34:09;1.45;;;0.95;;
27365;SDS011;14837;57.148;-2.144;2024-03-02T00:36:39;2.67;;;1.08;;
27365;SDS011;14837;57.148;-2.144;2024-03-02T00:39:05;2.28;;;0.80;;
27365;SDS011;14837;57.148;-2.144;2024-03-02T00:41:34;1.15;;;1.05;;
27365;SDS011;14837;57.148;-2.144;2024-03-02T00:44:02;4.75;;;2.92;;
27365;SDS011;14837;57.148;-2.144;2024-03-02T00:46:39;3.20;;;1.05;;
27365;SDS011;14837;57.148;-2.144;2024-03-02T00:51:38;2.60;;;1.10;;
27365;SDS011;14837;57.148;-2.144;2024-03-02T00:54:07;1.58;;;0.93;;
27365;SDS011;14837;57.148;-2.144;2024-03-02T00:56:34;4.47;;;1.00;;
27365;SDS011;14837;57.148;-2.144;2024-03-02T00:59:01;4.13;;;0.90;;
27365;SDS011;14837;57.148;-2.144;2024-03-02T01:01:28;3.13;;;1.00;;
27365;SDS011;14837;57.148;-2.144;2024-03-02T01:03:55;2.88;;;0.82;;
27365;SDS011;14837;57.148;-2.144;2024-03-02T01:06:21;1.40;;;0.80;;
27365;SDS011;14837;57.148;-2.144;2024-03-02T01:08:49;0.85;;;0.70;;
27365;SDS011;14837;57.148;-2.144;2024-03-02T01:11:19;1.67;;;0.80;;
27365;SDS011;14837;57.148;-2.144;2024-03-02T01:13:46;2.70;;;0.80;;
27365;SDS011;14837;57.148;-2.144;2024-03-02T01:16:13;2.80;;;0.90;;
27365;SDS011;14837;57.148;-2.144;2024-03-02T01:18:40;2.42;;;0.85;;
27365;SDS011;14837;57.148;-2.144;2024-03-02T01:21:07;1.42;;;0.63;;
27365;SDS011;14837;57.148;-2.144;2024-03-02T01:23:33;0.75;;;0.65;;
27365;SDS011;14837;57.148;-2.144;2024-03-02T01:26:00;5.38;;;1.17;;
27365;SDS011;14837;57.148;-2.144;2024-03-02T01:28:26;2.03;;;0.70;;
27365;SDS011;14837;57.148;-2.144;2024-03-02T01:30:53;1.60;;;0.80;;
27365;SDS011;14837;57.148;-2.144;2024-03-02T01:33:19;2.42;;;0.75;;
27365;SDS011;14837;57.148;-2.144;2024-03-02T01:35:46;1.17;;;0.60;;
27365;SDS011;14837;57.148;-2.144;2024-03-02T01:38:13;2.42;;;0.70;;
27365;SDS011;14837;57.148;-2.144;2024-03-02T01:40:40;1.38;;;0.70;;
27365;SDS011;14837;57.148;-2.144;2024-03-02T01:43:06;2.45;;;0.80;;
27365;SDS011;14837;57.148;-2.144;2024-03-02T01:45:34;3.95;;;1.00;;
27365;SDS011;14837;57.148;-2.144;2024-03-02T01:48:02;1.15;;;0.77;;
27365;SDS011;14837;57.148;-2.144;2024-03-02T01:50:30;1.98;;;0.80;;
27365;SDS011;14837;57.148;-2.144;2024-03-02T01:52:57;2.20;;;1.08;;
27365;SDS011;14837;57.148;-2.144;2024-03-02T01:55:24;3.78;;;1.05;;
27365;SDS011;14837;57.148;-2.144;2024-03-02T01:57:52;1.27;;;0.70;;
27365;SDS011;14837;57.148;-2.144;2024-03-02T02:00:19;0.85;;;0.60;;
27365;SDS011;14837;57.148;-2.144;2024-03-02T02:02:46;0.98;;;0.60;;
27365;SDS011;14837;57.148;-2.144;2024-03-02T02:05:13;2.40;;;0.70;;
27365;SDS011;14837;57.148;-2.144;2024-03-02T02:07:40;1.25;;;0.70;;
27365;SDS011;14837;57.148;-2.144;2024-03-02T02:10:08;3.47;;;0.90;;
27365;SDS011;14837;57.148;-2.144;2024-03-02T02:12:35;1.95;;;0.68;;
27365;SDS011;14837;57.148;-2.144;2024-03-02T02:15:03;2.28;;;0.90;;
27365;SDS011;14837;57.148;-2.144;2024-03-02T02:17:29;1.95;;;0.80;;
27365;SDS011;14837;57.148;-2.144;2024-03-02T02:19:56;0.77;;;0.47;;
27365;SDS011;14837;57.148;-2.144;2024-03-02T02:22:22;1.58;;;0.65;;
27365;SDS011;14837;57.148;-2.144;2024-03-02T02:24:49;1.65;;;0.60;;
27365;SDS011;14837;57.148;-2.144;2024-03-02T02:27:15;1.30;;;0.57;;
27365;SDS011;14837;57.148;-2.144;2024-03-02T02:29:42;1.48;;;0.60;;
27365;SDS011;14837;57.148;-2.144;2024-03-02T02:32:09;1.75;;;1.17;;
27365;SDS011;14837;57.148;-2.144;2024-03-02T02:34:35;1.30;;;0.70;;
27365;SDS011;14837;57.148;-2.144;2024-03-02T02:37:02;0.95;;;0.63;;
27365;SDS011;14837;57.148;-2.144;2024-03-02T02:39:29;1.20;;;1.10;;
27365;SDS011;14837;57.148;-2.144;2024-03-02T02:41:55;1.38;;;0.98;;
27365;SDS011;14837;57.148;-2.144;2024-03-02T02:44:22;1.17;;;1.05;;
27365;SDS011;14837;57.148;-2.144;2024-03-02T02:46:49;2.13;;;1.52;;
27365;SDS011;14837;57.148;-2.144;2024-03-02T02:49:15;2.05;;;1.30;;
27365;SDS011;14837;57.148;-2.144;2024-03-02T02:51:42;2.40;;;1.15;;
27365;SDS011;14837;57.148;-2.144;2024-03-02T02:54:08;2.22;;;1.40;;
27365;SDS011;14837;57.148;-2.144;2024-03-02T02:56:35;2.33;;;1.58;;
27365;SDS011;14837;57.148;-2.144;2024-03-02T02:59:01;1.85;;;1.27;;
27365;SDS011;14837;57.148;-2.144;2024-03-02T03:01:28;1.23;;;1.13;;
27365;SDS011;14837;57.148;-2.144;2024-03-02T03:03:55;2.80;;;1.35;;
27365;SDS011;14837;57.148;-2.144;2024-03-02T03:06:21;1.52;;;1.42;;
27365;SDS011;14837;57.148;-2.144;2024-03-02T03:08:48;1.50;;;1.40;;
27365;SDS011;14837;57.148;-2.144;2024-03-02T03:11:15;2.35;;;1.70;;
27365;SDS011;14837;57.148;-2.144;2024-03-02T03:13:41;1.80;;;1.60;;
27365;SDS011;14837;57.148;-2.144;2024-03-02T03:16:08;1.60;;;1.40;;
27365;SDS011;14837;57.148;-2.144;2024-03-02T03:18:35;1.92;;;1.50;;
27365;SDS011;14837;57.148;-2.144;2024-03-02T03:21:01;1.60;;;1.50;;
27365;SDS011;14837;57.148;-2.144;2024-03-02T03:23:28;1.77;;;1.67;;
27365;SDS011;14837;57.148;-2.144;2024-03-02T03:25:55;2.08;;;1.60;;
27365;SDS011;14837;57.148;-2.144;2024-03-02T03:28:21;2.70;;;1.80;;
27365;SDS011;14837;57.148;-2.144;2024-03-02T03:30:48;2.60;;;1.80;;
27365;SDS011;14837;57.148;-2.144;2024-03-02T03:33:14;2.08;;;1.88;;
27365;SDS011;14837;57.148;-2.144;2024-03-02T03:35:41;2.42;;;1.77;;
27365;SDS011;14837;57.148;-2.144;2024-03-02T03:38:08;3.05;;;1.77;;
27365;SDS011;14837;57.148;-2.144;2024-03-02T03:40:35;1.60;;;1.50;;
27365;SDS011;14837;57.148;-2.144;2024-03-02T03:43:01;2.20;;;1.70;;
27365;SDS011;14837;57.148;-2.144;2024-03-02T03:45:28;1.90;;;1.45;;
27365;SDS011;14837;57.148;-2.144;2024-03-02T03:47:56;3.70;;;1.90;;
27365;SDS011;14837;57.148;-2.144;2024-03-02T03:50:23;2.15;;;1.95;;
27365;SDS011;14837;57.148;-2.144;2024-03-02T03:52:50;1.83;;;1.73;;
27365;SDS011;14837;57.148;-2.144;2024-03-02T03:55:16;3.13;;;2.08;;
27365;SDS011;14837;57.148;-2.144;2024-03-02T03:57:43;2.15;;;1.90;;
27365;SDS011;14837;57.148;-2.144;2024-03-02T04:00:09;2.10;;;1.67;;
27365;SDS011;14837;57.148;-2.144;2024-03-02T04:02:36;2.70;;;1.90;;
27365;SDS011;14837;57.148;-2.144;2024-03-02T04:05:03;1.58;;;1.48;;
27365;SDS011;14837;57.148;-2.144;2024-03-02T04:07:35;4.00;;;1.58;;
27365;SDS011;14837;57.148;-2.144;2024-03-02T04:10:07;5.32;;;2.03;;
27365;SDS011;14837;57.148;-2.144;2024-03-02T04:12:35;2.85;;;1.80;;
27365;SDS011;14837;57.148;-2.144;2024-03-02T04:15:05;3.13;;;1.58;;
27365;SDS011;14837;57.148;-2.144;2024-03-02T04:17:33;2.85;;;1.70;;
27365;SDS011;14837;57.148;-2.144;2024-03-02T04:20:00;1.83;;;1.50;;
27365;SDS011;14837;57.148;-2.144;2024-03-02T04:22:27;1.98;;;1.35;;
27365;SDS011;14837;57.148;-2.144;2024-03-02T04:24:54;1.63;;;1.40;;
27365;SDS011;14837;57.148;-2.144;2024-03-02T04:27:21;2.78;;;1.60;;
27365;SDS011;14837;57.148;-2.144;2024-03-02T04:29:47;1.60;;;1.50;;
27365;SDS011;14837;57.148;-2.144;2024-03-02T04:32:14;2.90;;;1.55;;
27365;SDS011;14837;57.148;-2.144;2024-03-02T04:34:40;2.63;;;1.33;;
27365;SDS011;14837;57.148;-2.144;2024-03-02T04:37:07;1.88;;;1.25;;
27365;SDS011;14837;57.148;-2.144;2024-03-02T04:39:34;2.25;;;1.52;;
27365;SDS011;14837;57.148;-2.144;2024-03-02T04:42:01;1.83;;;1.60;;
27365;SDS011;14837;57.148;-2.144;2024-03-02T04:44:29;2.40;;;1.63;;
27365;SDS011;14837;57.148;-2.144;2024-03-02T04:46:55;4.10;;;1.60;;
27365;SDS011;14837;57.148;-2.144;2024-03-02T04:49:22;1.42;;;1.30;;
27365;SDS011;14837;57.148;-2.144;2024-03-02T04:51:48;3.28;;;1.25;;
27365;SDS011;14837;57.148;-2.144;2024-03-02T04:54:15;2.58;;;1.80;;
27365;SDS011;14837;57.148;-2.144;2024-03-02T04:56:42;2.00;;;1.35;;
27365;SDS011;14837;57.148;-2.144;2024-03-02T04:59:16;4.05;;;1.52;;
27365;SDS011;14837;57.148;-2.144;2024-03-02T05:01:43;1.88;;;1.40;;
27365;SDS011;14837;57.148;-2.144;2024-03-02T05:04:10;1.92;;;1.50;;
27365;SDS011;14837;57.148;-2.144;2024-03-02T05:06:40;1.60;;;1.48;;
27365;SDS011;14837;57.148;-2.144;2024-03-02T05:09:08;2.53;;;1.50;;
27365;SDS011;14837;57.148;-2.144;2024-03-02T05:11:35;2.70;;;1.25;;
27365;SDS011;14837;57.148;-2.144;2024-03-02T05:14:04;3.92;;;1.85;;
27365;SDS011;14837;57.148;-2.144;2024-03-02T05:16:34;3.40;;;1.90;;
27365;SDS011;14837;57.148;-2.144;2024-03-02T05:19:01;3.00;;;1.83;;
27365;SDS011;14837;57.148;-2.144;2024-03-02T05:21:28;3.78;;;1.50;;
27365;SDS011;14837;57.148;-2.144;2024-03-02T05:23:54;2.70;;;2.05;;
27365;SDS011;14837;57.148;-2.144;2024-03-02T05:26:21;3.15;;;2.00;;
27365;SDS011;14837;57.148;-2.144;2024-03-02T05:28:47;1.55;;;1.30;;
27365;SDS011;14837;57.148;-2.144;2024-03-02T05:31:17;6.50;;;2.05;;
27365;SDS011;14837;57.148;-2.144;2024-03-02T05:33:44;2.65;;;1.63;;
27365;SDS011;14837;57.148;-2.144;2024-03-02T05:36:10;2.30;;;1.40;;
27365;SDS011;14837;57.148;-2.144;2024-03-02T05:38:37;1.98;;;1.60;;
27365;SDS011;14837;57.148;-2.144;2024-03-02T05:41:03;3.28;;;1.60;;
27365;SDS011;14837;57.148;-2.144;2024-03-02T05:43:31;2.00;;;1.80;;
27365;SDS011;14837;57.148;-2.144;2024-03-02T05:45:57;4.63;;;2.00;;
27365;SDS011;14837;57.148;-2.144;2024-03-02T05:48:24;1.80;;;1.60;;
27365;SDS011;14837;57.148;-2.144;2024-03-02T05:50:50;3.83;;;2.00;;
27365;SDS011;14837;57.148;-2.144;2024-03-02T05:53:17;4.30;;;2.45;;
27365;SDS011;14837;57.148;-2.144;2024-03-02T05:55:43;3.47;;;2.40;;
27365;SDS011;14837;57.148;-2.144;2024-03-02T05:58:11;2.47;;;1.67;;
27365;SDS011;14837;57.148;-2.144;2024-03-02T06:00:52;1.75;;;1.65;;
27365;SDS011;14837;57.148;-2.144;2024-03-02T06:03:19;3.92;;;1.98;;
27365;SDS011;14837;57.148;-2.144;2024-03-02T06:05:45;4.57;;;1.83;;
27365;SDS011;14837;57.148;-2.144;2024-03-02T06:08:12;1.90;;;1.70;;
27365;SDS011;14837;57.148;-2.144;2024-03-02T06:10:38;3.17;;;1.83;;
27365;SDS011;14837;57.148;-2.144;2024-03-02T06:13:06;5.78;;;1.98;;
27365;SDS011;14837;57.148;-2.144;2024-03-02T06:15:33;4.05;;;2.03;;
27365;SDS011;14837;57.148;-2.144;2024-03-02T06:18:02;3.08;;;2.03;;
27365;SDS011;14837;57.148;-2.144;2024-03-02T06:20:29;3.00;;;2.30;;
27365;SDS011;14837;57.148;-2.144;2024-03-02T06:23:01;4.63;;;2.42;;
27365;SDS011;14837;57.148;-2.144;2024-03-02T06:25:28;2.85;;;1.92;;
27365;SDS011;14837;57.148;-2.144;2024-03-02T06:27:54;2.03;;;1.65;;
27365;SDS011;14837;57.148;-2.144;2024-03-02T06:30:21;2.33;;;1.98;;
27365;SDS011;14837;57.148;-2.144;2024-03-02T06:32:48;2.28;;;1.95;;
27365;SDS011;14837;57.148;-2.144;2024-03-02T06:35:14;3.13;;;2.13;;
27365;SDS011;14837;57.148;-2.144;2024-03-02T06:37:41;2.97;;;2.05;;
27365;SDS011;14837;57.148;-2.144;2024-03-02T06:40:08;3.67;;;1.95;;
27365;SDS011;14837;57.148;-2.144;2024-03-02T06:42:34;2.70;;;2.05;;
27365;SDS011;14837;57.148;-2.144;2024-03-02T06:45:02;3.15;;;2.65;;
27365;SDS011;14837;57.148;-2.144;2024-03-02T06:47:29;2.80;;;2.50;;
27365;SDS011;14837;57.148;-2.144;2024-03-02T06:49:56;2.83;;;2.30;;
27365;SDS011;14837;57.148;-2.144;2024-03-02T06:52:24;4.65;;;3.88;;
27365;SDS011;14837;57.148;-2.144;2024-03-02T06:54:51;2.75;;;2.55;;
27365;SDS011;14837;57.148;-2.144;2024-03-02T06:57:17;5.53;;;3.67;;
27365;SDS011;14837;57.148;-2.144;2024-03-02T06:59:49;3.45;;;3.13;;
27365;SDS011;14837;57.148;-2.144;2024-03-02T07:02:17;3.63;;;2.83;;
27365;SDS011;14837;57.148;-2.144;2024-03-02T07:04:44;5.15;;;4.65;;
27365;SDS011;14837;57.148;-2.144;2024-03-02T07:07:11;4.63;;;2.30;;
27365;SDS011;14837;57.148;-2.144;2024-03-02T07:09:38;3.72;;;2.55;;
27365;SDS011;14837;57.148;-2.144;2024-03-02T07:12:05;4.57;;;2.72;;
27365;SDS011;14837;57.148;-2.144;2024-03-02T07:14:31;3.42;;;2.20;;
27365;SDS011;14837;57.148;-2.144;2024-03-02T07:17:24;3.20;;;2.40;;
27365;SDS011;14837;57.148;-2.144;2024-03-02T07:19:51;3.85;;;2.67;;
27365;SDS011;14837;57.148;-2.144;2024-03-02T07:22:17;3.03;;;2.25;;
27365;SDS011;14837;57.148;-2.144;2024-03-02T07:24:44;2.30;;;1.90;;
27365;SDS011;14837;57.148;-2.144;2024-03-02T07:27:12;3.50;;;2.03;;
27365;SDS011;14837;57.148;-2.144;2024-03-02T07:29:39;3.63;;;2.25;;
27365;SDS011;14837;57.148;-2.144;2024-03-02T07:32:06;3.53;;;2.30;;
27365;SDS011;14837;57.148;-2.144;2024-03-02T07:34:33;4.10;;;2.92;;
27365;SDS011;14837;57.148;-2.144;2024-03-02T07:37:00;5.32;;;2.30;;
27365;SDS011;14837;57.148;-2.144;2024-03-02T07:39:27;3.22;;;1.90;;
27365;SDS011;14837;57.148;-2.144;2024-03-02T07:41:53;1.80;;;1.70;;
27365;SDS011;14837;57.148;-2.144;2024-03-02T07:44:20;5.40;;;3.20;;
27365;SDS011;14837;57.148;-2.144;2024-03-02T07:46:47;5.10;;;2.10;;
27365;SDS011;14837;57.148;-2.144;2024-03-02T07:49:16;3.97;;;3.00;;
27365;SDS011;14837;57.148;-2.144;2024-03-02T07:51:42;5.97;;;2.50;;
27365;SDS011;14837;57.148;-2.144;2024-03-02T07:54:09;3.10;;;2.15;;
27365;SDS011;14837;57.148;-2.144;2024-03-02T07:56:36;4.90;;;2.80;;
27365;SDS011;14837;57.148;-2.144;2024-03-02T07:59:02;5.60;;;3.15;;
27365;SDS011;14837;57.148;-2.144;2024-03-02T08:01:30;4.35;;;2.50;;
27365;SDS011;14837;57.148;-2.144;2024-03-02T08:03:57;6.10;;;3.25;;
27365;SDS011;14837;57.148;-2.144;2024-03-02T08:06:25;3.97;;;2.05;;
27365;SDS011;14837;57.148;-2.144;2024-03-02T08:08:54;5.13;;;2.45;;
27365;SDS011;14837;57.148;-2.144;2024-03-02T08:11:21;5.13;;;2.30;;
27365;SDS011;14837;57.148;-2.144;2024-03-02T08:13:48;3.78;;;2.70;;
27365;SDS011;14837;57.148;-2.144;2024-03-02T08:16:15;3.67;;;2.42;;
27365;SDS011;14837;57.148;-2.144;2024-03-02T08:18:42;1.70;;;1.60;;
27365;SDS011;14837;57.148;-2.144;2024-03-02T08:21:08;3.50;;;2.80;;
27365;SDS011;14837;57.148;-2.144;2024-03-02T08:23:35;5.05;;;2.30;;
27365;SDS011;14837;57.148;-2.144;2024-03-02T08:26:01;4.78;;;2.17;;
27365;SDS011;14837;57.148;-2.144;2024-03-02T08:28:28;2.60;;;2.40;;
27365;SDS011;14837;57.148;-2.144;2024-03-02T08:30:54;2.63;;;2.28;;
27365;SDS011;14837;57.148;-2.144;2024-03-02T08:33:21;2.70;;;2.17;;
27365;SDS011;14837;57.148;-2.144;2024-03-02T08:35:47;2.20;;;2.00;;
27365;SDS011;14837;57.148;-2.144;2024-03-02T08:38:14;4.25;;;2.80;;
27365;SDS011;14837;57.148;-2.144;2024-03-02T08:40:41;2.47;;;2.28;;
27365;SDS011;14837;57.148;-2.144;2024-03-02T08:43:07;3.72;;;2.25;;
27365;SDS011;14837;57.148;-2.144;2024-03-02T08:45:34;3.30;;;2.33;;
27365;SDS011;14837;57.148;-2.144;2024-03-02T08:48:01;3.88;;;2.30;;
27365;SDS011;14837;57.148;-2.144;2024-03-02T08:50:27;5.13;;;2.47;;
27365;SDS011;14837;57.148;-2.144;2024-03-02T08:52:54;3.40;;;3.10;;
27365;SDS011;14837;57.148;-2.144;2024-03-02T08:55:20;2.60;;;2.08;;
27365;SDS011;14837;57.148;-2.144;2024-03-02T08:57:47;2.78;;;2.13;;
27365;SDS011;14837;57.148;-2.144;2024-03-02T09:00:13;2.97;;;2.40;;
27365;SDS011;14837;57.148;-2.144;2024-03-02T09:02:40;2.50;;;2.25;;
27365;SDS011;14837;57.148;-2.144;2024-03-02T09:05:07;2.35;;;2.15;;
27365;SDS011;14837;57.148;-2.144;2024-03-02T09:07:35;2.10;;;1.90;;
27365;SDS011;14837;57.148;-2.144;2024-03-02T09:10:01;2.50;;;2.30;;
27365;SDS011;14837;57.148;-2.144;2024-03-02T09:12:28;2.72;;;2.30;;
27365;SDS011;14837;57.148;-2.144;2024-03-02T09:14:54;2.63;;;2.42;;
27365;SDS011;14837;57.148;-2.144;2024-03-02T09:17:21;3.40;;;2.70;;
27365;SDS011;14837;57.148;-2.144;2024-03-02T09:19:47;3.35;;;2.33;;
27365;SDS011;14837;57.148;-2.144;2024-03-02T09:22:14;2.88;;;2.17;;
27365;SDS011;14837;57.148;-2.144;2024-03-02T09:24:40;2.45;;;2.10;;
27365;SDS011;14837;57.148;-2.144;2024-03-02T09:27:07;2.83;;;2.25;;
27365;SDS011;14837;57.148;-2.144;2024-03-02T09:29:34;2.60;;;2.05;;
27365;SDS011;14837;57.148;-2.144;2024-03-02T09:32:00;2.65;;;1.98;;
27365;SDS011;14837;57.148;-2.144;2024-03-02T09:34:27;2.03;;;1.83;;
27365;SDS011;14837;57.148;-2.144;2024-03-02T09:36:56;2.17;;;2.00;;
27365;SDS011;14837;57.148;-2.144;2024-03-02T09:39:22;2.40;;;2.17;;
27365;SDS011;14837;57.148;-2.144;2024-03-02T09:41:49;2.08;;;1.85;;
27365;SDS011;14837;57.148;-2.144;2024-03-02T09:44:16;2.72;;;1.85;;
27365;SDS011;14837;57.148;-2.144;2024-03-02T09:46:42;3.47;;;2.03;;
27365;SDS011;14837;57.148;-2.144;2024-03-02T09:49:10;3.17;;;2.33;;
27365;SDS011;14837;57.148;-2.144;2024-03-02T09:51:37;2.80;;;1.95;;
27365;SDS011;14837;57.148;-2.144;2024-03-02T09:54:04;1.73;;;1.50;;
27365;SDS011;14837;57.148;-2.144;2024-03-02T09:56:46;1.30;;;1.20;;
27365;SDS011;14837;57.148;-2.144;2024-03-02T09:59:13;2.85;;;1.63;;
27365;SDS011;14837;57.148;-2.144;2024-03-02T10:01:58;1.83;;;1.48;;
27365;SDS011;14837;57.148;-2.144;2024-03-02T10:04:26;2.17;;;1.30;;
27365;SDS011;14837;57.148;-2.144;2024-03-02T10:09:38;1.80;;;1.70;;
27365;SDS011;14837;57.148;-2.144;2024-03-02T10:12:05;1.92;;;1.50;;
27365;SDS011;14837;57.148;-2.144;2024-03-02T10:14:32;2.13;;;1.58;;
27365;SDS011;14837;57.148;-2.144;2024-03-02T10:17:06;1.45;;;1.33;;
27365;SDS011;14837;57.148;-2.144;2024-03-02T10:19:32;1.27;;;1.17;;
27365;SDS011;14837;57.148;-2.144;2024-03-02T10:22:01;0.90;;;0.77;;
27365;SDS011;14837;57.148;-2.144;2024-03-02T10:24:40;1.52;;;0.90;;
27365;SDS011;14837;57.148;-2.144;2024-03-02T10:27:10;1.15;;;0.98;;
27365;SDS011;14837;57.148;-2.144;2024-03-02T10:32:10;2.00;;;0.85;;
27365;SDS011;14837;57.148;-2.144;2024-03-02T10:34:41;0.70;;;0.70;;
27365;SDS011;14837;57.148;-2.144;2024-03-02T10:37:08;0.98;;;0.73;;
27365;SDS011;14837;57.148;-2.144;2024-03-02T10:39:35;0.70;;;0.70;;
27365;SDS011;14837;57.148;-2.144;2024-03-02T10:42:08;0.60;;;0.60;;
27365;SDS011;14837;57.148;-2.144;2024-03-02T10:44:35;0.93;;;0.70;;
27365;SDS011;14837;57.148;-2.144;2024-03-02T10:47:02;0.50;;;0.50;;
27365;SDS011;14837;57.148;-2.144;2024-03-02T10:49:32;0.80;;;0.80;;
27365;SDS011;14837;57.148;-2.144;2024-03-02T10:51:59;0.77;;;0.60;;
27365;SDS011;14837;57.148;-2.144;2024-03-02T10:54:26;1.83;;;0.60;;
27365;SDS011;14837;57.148;-2.144;2024-03-02T10:56:56;0.73;;;0.65;;
27365;SDS011;14837;57.148;-2.144;2024-03-02T10:59:28;0.88;;;0.75;;
27365;SDS011;14837;57.148;-2.144;2024-03-02T11:01:58;0.60;;;0.60;;
27365;SDS011;14837;57.148;-2.144;2024-03-02T11:04:31;1.65;;;0.90;;
27365;SDS011;14837;57.148;-2.144;2024-03-02T11:09:25;1.48;;;1.00;;
27365;SDS011;14837;57.148;-2.144;2024-03-02T11:11:54;1.02;;;0.90;;
27365;SDS011;14837;57.148;-2.144;2024-03-02T11:14:23;1.20;;;0.95;;
27365;SDS011;14837;57.148;-2.144;2024-03-02T11:16:50;2.05;;;1.38;;
27365;SDS011;14837;57.148;-2.144;2024-03-02T11:19:17;1.17;;;1.00;;
27365;SDS011;14837;57.148;-2.144;2024-03-02T11:21:45;1.05;;;0.90;;
27365;SDS011;14837;57.148;-2.144;2024-03-02T11:26:47;1.55;;;1.13;;
27365;SDS011;14837;57.148;-2.144;2024-03-02T11:31:59;1.15;;;0.90;;
27365;SDS011;14837;57.148;-2.144;2024-03-02T11:34:32;1.80;;;1.25;;
27365;SDS011;14837;57.148;-2.144;2024-03-02T11:37:02;1.38;;;1.05;;
27365;SDS011;14837;57.148;-2.144;2024-03-02T11:39:30;1.35;;;1.20;;
27365;SDS011;14837;57.148;-2.144;2024-03-02T11:41:57;1.25;;;1.05;;
27365;SDS011;14837;57.148;-2.144;2024-03-02T11:44:26;1.15;;;1.00;;
27365;SDS011;14837;57.148;-2.144;2024-03-02T11:47:02;1.38;;;1.05;;
27365;SDS011;14837;57.148;-2.144;2024-03-02T11:52:08;1.70;;;1.08;;
27365;SDS011;14837;57.148;-2.144;2024-03-02T11:54:39;1.17;;;0.90;;
27365;SDS011;14837;57.148;-2.144;2024-03-02T11:57:06;1.63;;;1.05;;
27365;SDS011;14837;57.148;-2.144;2024-03-02T11:59:33;1.35;;;0.70;;
27365;SDS011;14837;57.148;-2.144;2024-03-02T12:02:00;1.30;;;1.20;;
27365;SDS011;14837;57.148;-2.144;2024-03-02T12:04:28;1.05;;;0.95;;
27365;SDS011;14837;57.148;-2.144;2024-03-02T12:06:56;0.95;;;0.80;;
27365;SDS011;14837;57.148;-2.144;2024-03-02T12:09:23;1.38;;;1.20;;
27365;SDS011;14837;57.148;-2.144;2024-03-02T12:12:00;1.83;;;1.73;;
27365;SDS011;14837;57.148;-2.144;2024-03-02T12:14:27;1.58;;;1.40;;
27365;SDS011;14837;57.148;-2.144;2024-03-02T12:16:55;3.38;;;1.48;;
27365;SDS011;14837;57.148;-2.144;2024-03-02T12:19:22;1.52;;;1.27;;
27365;SDS011;14837;57.148;-2.144;2024-03-02T12:21:48;1.55;;;1.35;;
27365;SDS011;14837;57.148;-2.144;2024-03-02T12:24:15;2.10;;;1.60;;
27365;SDS011;14837;57.148;-2.144;2024-03-02T12:26:42;1.35;;;1.25;;
27365;SDS011;14837;57.148;-2.144;2024-03-02T12:29:08;1.90;;;1.38;;
27365;SDS011;14837;57.148;-2.144;2024-03-02T12:31:35;1.33;;;1.23;;
27365;SDS011;14837;57.148;-2.144;2024-03-02T12:34:02;1.65;;;1.20;;
27365;SDS011;14837;57.148;-2.144;2024-03-02T12:36:29;1.83;;;1.00;;
27365;SDS011;14837;57.148;-2.144;2024-03-02T12:38:56;1.90;;;1.40;;
27365;SDS011;14837;57.148;-2.144;2024-03-02T12:41:23;1.50;;;1.08;;
27365;SDS011;14837;57.148;-2.144;2024-03-02T12:43:50;2.03;;;1.38;;
27365;SDS011;14837;57.148;-2.144;2024-03-02T12:46:16;3.00;;;1.20;;
27365;SDS011;14837;57.148;-2.144;2024-03-02T12:48:43;2.63;;;1.05;;
27365;SDS011;14837;57.148;-2.144;2024-03-02T12:51:10;1.50;;;0.98;;
27365;SDS011;14837;57.148;-2.144;2024-03-02T12:53:36;1.20;;;1.10;;
27365;SDS011;14837;57.148;-2.144;2024-03-02T12:56:03;2.15;;;1.15;;
27365;SDS011;14837;57.148;-2.144;2024-03-02T12:58:30;1.00;;;0.82;;
27365;SDS011;14837;57.148;-2.144;2024-03-02T13:01:05;2.47;;;0.90;;
27365;SDS011;14837;57.148;-2.144;2024-03-02T13:03:34;1.65;;;0.70;;
27365;SDS011;14837;57.148;-2.144;2024-03-02T13:06:01;1.15;;;0.68;;
27365;SDS011;14837;57.148;-2.144;2024-03-02T13:08:27;1.42;;;0.98;;
27365;SDS011;14837;57.148;-2.144;2024-03-02T13:10:54;1.67;;;1.05;;
27365;SDS011;14837;57.148;-2.144;2024-03-02T13:13:21;1.42;;;0.93;;
27365;SDS011;14837;57.148;-2.144;2024-03-02T13:15:47;3.58;;;1.88;;
27365;SDS011;14837;57.148;-2.144;2024-03-02T13:18:14;2.28;;;2.08;;
27365;SDS011;14837;57.148;-2.144;2024-03-02T13:20:41;1.80;;;1.10;;
27365;SDS011;14837;57.148;-2.144;2024-03-02T13:23:07;2.97;;;1.08;;
27365;SDS011;14837;57.148;-2.144;2024-03-02T13:25:34;1.98;;;0.93;;
27365;SDS011;14837;57.148;-2.144;2024-03-02T13:28:00;1.55;;;0.70;;
27365;SDS011;14837;57.148;-2.144;2024-03-02T13:30:27;1.35;;;0.50;;
27365;SDS011;14837;57.148;-2.144;2024-03-02T13:32:54;0.77;;;0.60;;
27365;SDS011;14837;57.148;-2.144;2024-03-02T13:35:20;1.45;;;0.68;;
27365;SDS011;14837;57.148;-2.144;2024-03-02T13:37:47;0.82;;;0.50;;
27365;SDS011;14837;57.148;-2.144;2024-03-02T13:40:13;2.25;;;0.77;;
27365;SDS011;14837;57.148;-2.144;2024-03-02T13:42:44;1.42;;;0.70;;
27365;SDS011;14837;57.148;-2.144;2024-03-02T13:45:10;0.70;;;0.45;;
27365;SDS011;14837;57.148;-2.144;2024-03-02T13:47:37;0.68;;;0.65;;
27365;SDS011;14837;57.148;-2.144;2024-03-02T13:50:04;1.77;;;0.73;;
27365;SDS011;14837;57.148;-2.144;2024-03-02T13:52:31;0.77;;;0.50;;
27365;SDS011;14837;57.148;-2.144;2024-03-02T13:54:58;1.67;;;0.70;;
27365;SDS011;14837;57.148;-2.144;2024-03-02T13:57:24;0.60;;;0.55;;
27365;SDS011;14837;57.148;-2.144;2024-03-02T13:59:52;2.75;;;0.80;;
27365;SDS011;14837;57.148;-2.144;2024-03-02T14:02:19;2.03;;;0.60;;
27365;SDS011;14837;57.148;-2.144;2024-03-02T14:04:46;1.25;;;1.15;;
27365;SDS011;14837;57.148;-2.144;2024-03-02T14:07:14;2.10;;;0.73;;
27365;SDS011;14837;57.148;-2.144;2024-03-02T14:09:41;1.27;;;0.93;;
27365;SDS011;14837;57.148;-2.144;2024-03-02T14:12:08;3.28;;;1.00;;
27365;SDS011;14837;57.148;-2.144;2024-03-02T14:14:35;0.63;;;0.63;;
27365;SDS011;14837;57.148;-2.144;2024-03-02T14:17:02;1.35;;;0.63;;
27365;SDS011;14837;57.148;-2.144;2024-03-02T14:19:33;1.88;;;0.68;;
27365;SDS011;14837;57.148;-2.144;2024-03-02T14:21:59;1.90;;;1.50;;
27365;SDS011;14837;57.148;-2.144;2024-03-02T14:24:26;2.70;;;1.50;;
27365;SDS011;14837;57.148;-2.144;2024-03-02T14:26:54;1.83;;;1.42;;
27365;SDS011;14837;57.148;-2.144;2024-03-02T14:29:35;3.55;;;3.25;;
27365;SDS011;14837;57.148;-2.144;2024-03-02T14:32:04;2.67;;;2.47;;
27365;SDS011;14837;57.148;-2.144;2024-03-02T14:34:31;2.95;;;1.10;;
27365;SDS011;14837;57.148;-2.144;2024-03-02T14:36:57;1.27;;;0.77;;
27365;SDS011;14837;57.148;-2.144;2024-03-02T14:39:25;3.05;;;1.52;;
27365;SDS011;14837;57.148;-2.144;2024-03-02T14:41:52;3.05;;;1.33;;
27365;SDS011;14837;57.148;-2.144;2024-03-02T14:44:18;0.88;;;0.68;;
27365;SDS011;14837;57.148;-2.144;2024-03-02T14:46:48;2.40;;;0.90;;
27365;SDS011;14837;57.148;-2.144;2024-03-02T14:49:15;0.88;;;0.60;;
27365;SDS011;14837;57.148;-2.144;2024-03-02T14:51:41;0.80;;;0.60;;
27365;SDS011;14837;57.148;-2.144;2024-03-02T14:54:08;1.25;;;0.75;;